Time,TemperatureF,DewpointF,PressureIn,WindDirection,WindDirectionDegrees,WindSpeedMPH,WindSpeedGustMPH,Humidity,HourlyPrecipIn,Conditions,Clouds,dailyrainin,SolarRadiationWatts/m^2,SoftwareType,DateUTC
2013-08-23 00:01:00,83.0,70.0,-100.00,SSE,167,1.0,8.0,64,0.00,,,0.00,0.000000,,2013-08-23 07:01:00,
2013-08-23 00:12:00,83.0,70.0,-100.00,SSE,167,1.0,8.0,64,0.00,,,0.00,0.000000,,2013-08-23 07:12:00,
2013-08-23 00:22:00,83.0,70.0,-100.00,SSE,167,1.0,8.0,64,0.00,,,0.00,0.000000,,2013-08-23 07:22:00,
2013-08-23 00:52:00,82.0,70.0,-100.00,NNW,342,1.0,8.0,67,0.00,,,0.00,0.000000,,2013-08-23 07:52:00,
2013-08-23 01:02:00,82.0,70.0,-100.00,NNW,342,1.0,8.0,67,0.00,,,0.00,0.000000,,2013-08-23 08:02:00,
2013-08-23 01:12:00,82.0,70.0,-100.00,NNW,342,1.0,8.0,67,0.00,,,0.00,0.000000,,2013-08-23 08:12:00,
2013-08-23 01:22:00,82.0,70.0,-100.00,NNW,342,1.0,8.0,67,0.00,,,0.00,0.000000,,2013-08-23 08:22:00,
2013-08-23 01:52:00,81.0,71.0,-100.00,North,4,6.0,9.0,71,0.00,,,0.00,0.000000,,2013-08-23 08:52:00,
2013-08-23 02:01:00,81.0,71.0,-100.00,North,4,6.0,9.0,71,0.00,,,0.00,0.000000,,2013-08-23 09:01:00,
2013-08-23 02:12:00,81.0,71.0,-100.00,North,4,6.0,9.0,71,0.00,,,0.00,0.000000,,2013-08-23 09:12:00,
2013-08-23 02:21:00,81.0,71.0,-100.00,North,4,6.0,9.0,71,0.00,,,0.00,0.000000,,2013-08-23 09:21:00,
2013-08-23 02:53:00,82.0,73.0,-100.00,NNE,18,0.0,8.0,75,0.00,,,0.00,0.000000,,2013-08-23 09:53:00,
2013-08-23 03:03:00,82.0,73.0,-100.00,NNE,18,0.0,8.0,75,0.00,,,0.00,0.000000,,2013-08-23 10:03:00,
2013-08-23 03:13:00,82.0,73.0,-100.00,NNE,18,0.0,8.0,75,0.00,,,0.00,0.000000,,2013-08-23 10:13:00,
2013-08-23 03:22:00,82.0,73.0,-100.00,NNE,18,0.0,8.0,75,0.00,,,0.00,0.000000,,2013-08-23 10:22:00,
2013-08-23 03:53:00,82.0,73.0,-100.00,WNW,302,0.0,4.0,74,0.00,,,0.00,0.000000,,2013-08-23 10:53:00,
2013-08-23 04:02:00,82.0,73.0,-100.00,WNW,302,0.0,4.0,74,0.00,,,0.00,0.000000,,2013-08-23 11:02:00,
2013-08-23 04:11:00,82.0,73.0,-100.00,WNW,302,0.0,4.0,74,0.00,,,0.00,0.000000,,2013-08-23 11:11:00,
2013-08-23 04:22:00,82.0,73.0,-100.00,WNW,302,0.0,4.0,74,0.00,,,0.00,0.000000,,2013-08-23 11:22:00,
2013-08-23 04:53:00,82.0,72.0,-100.00,NW,325,0.0,3.0,73,0.00,,,0.00,0.000000,,2013-08-23 11:53:00,
2013-08-23 05:01:00,82.0,72.0,-100.00,NW,325,0.0,3.0,73,0.00,,,0.00,0.000000,,2013-08-23 12:01:00,
2013-08-23 05:11:00,82.0,72.0,-100.00,NW,325,0.0,3.0,73,0.00,,,0.00,0.000000,,2013-08-23 12:11:00,
2013-08-23 05:22:00,82.0,72.0,-100.00,NW,325,0.0,3.0,73,0.00,,,0.00,0.000000,,2013-08-23 12:22:00,
2013-08-23 05:52:00,80.0,71.0,-100.00,NNE,28,5.0,7.0,74,0.00,,,0.00,0.000000,,2013-08-23 12:52:00,
2013-08-23 06:02:00,80.0,71.0,-100.00,NNE,28,5.0,7.0,74,0.00,,,0.00,0.000000,,2013-08-23 13:02:00,
2013-08-23 06:11:00,80.0,71.0,-100.00,NNE,28,5.0,7.0,74,0.00,,,0.00,0.000000,,2013-08-23 13:11:00,
2013-08-23 06:22:00,80.0,71.0,-100.00,NNE,28,5.0,7.0,74,0.00,,,0.00,0.000000,,2013-08-23 13:22:00,
2013-08-23 06:52:00,81.0,71.0,-100.00,SW,218,0.0,8.0,72,0.00,,,0.00,1.000000,,2013-08-23 13:52:00,
2013-08-23 07:02:00,81.0,71.0,-100.00,SW,218,0.0,8.0,72,0.00,,,0.00,1.000000,,2013-08-23 14:02:00,
2013-08-23 07:11:00,81.0,71.0,-100.00,SW,218,0.0,8.0,72,0.00,,,0.00,1.000000,,2013-08-23 14:11:00,
2013-08-23 07:21:00,81.0,71.0,-100.00,SW,218,0.0,8.0,72,0.00,,,0.00,1.000000,,2013-08-23 14:21:00,
2013-08-23 07:52:00,86.0,75.0,-100.00,ESE,107,0.0,0.0,71,0.00,,,0.00,66.000000,,2013-08-23 14:52:00,
2013-08-23 08:01:00,86.0,75.0,-100.00,ESE,107,0.0,0.0,71,0.00,,,0.00,66.000000,,2013-08-23 15:01:00,
2013-08-23 08:11:00,86.0,75.0,-100.00,ESE,107,0.0,0.0,71,0.00,,,0.00,66.000000,,2013-08-23 15:11:00,
2013-08-23 08:21:00,86.0,75.0,-100.00,ESE,107,0.0,0.0,71,0.00,,,0.00,66.000000,,2013-08-23 15:21:00,
2013-08-23 08:54:00,92.0,71.0,-100.00,SW,233,0.0,4.0,51,0.00,,,0.00,267.000000,,2013-08-23 15:54:00,
2013-08-23 09:05:00,92.0,71.0,-100.00,SW,233,0.0,4.0,51,0.00,,,0.00,267.000000,,2013-08-23 16:05:00,
2013-08-23 09:13:00,92.0,71.0,-100.00,SW,233,0.0,4.0,51,0.00,,,0.00,267.000000,,2013-08-23 16:13:00,
2013-08-23 09:24:00,92.0,71.0,-100.00,SW,233,0.0,4.0,51,0.00,,,0.00,267.000000,,2013-08-23 16:24:00,
2013-08-23 09:53:00,95.0,70.0,-100.00,SSW,207,2.0,7.0,44,0.00,,,0.00,541.000000,,2013-08-23 16:53:00,
2013-08-23 10:03:00,95.0,70.0,-100.00,SSW,207,2.0,7.0,44,0.00,,,0.00,541.000000,,2013-08-23 17:03:00,
2013-08-23 10:13:00,95.0,70.0,-100.00,SSW,207,2.0,7.0,44,0.00,,,0.00,541.000000,,2013-08-23 17:13:00,
2013-08-23 10:23:00,95.0,70.0,-100.00,SSW,207,2.0,7.0,44,0.00,,,0.00,541.000000,,2013-08-23 17:23:00,
2013-08-23 10:53:00,99.0,65.0,-100.00,SSW,196,5.0,9.0,33,0.00,,,0.00,777.000000,,2013-08-23 17:53:00,
2013-08-23 11:02:00,99.0,65.0,-100.00,SSW,196,5.0,9.0,33,0.00,,,0.00,777.000000,,2013-08-23 18:02:00,
2013-08-23 11:12:00,99.0,65.0,-100.00,SSW,196,5.0,9.0,33,0.00,,,0.00,777.000000,,2013-08-23 18:12:00,
2013-08-23 11:22:00,99.0,65.0,-100.00,SSW,196,5.0,9.0,33,0.00,,,0.00,777.000000,,2013-08-23 18:22:00,
2013-08-23 11:52:00,101.0,63.0,-100.00,SSW,197,6.0,12.0,29,0.00,,,0.00,989.000000,,2013-08-23 18:52:00,
2013-08-23 12:01:00,101.0,63.0,-100.00,SSW,197,6.0,12.0,29,0.00,,,0.00,989.000000,,2013-08-23 19:01:00,
2013-08-23 12:11:00,101.0,63.0,-100.00,SSW,197,6.0,12.0,29,0.00,,,0.00,989.000000,,2013-08-23 19:11:00,
2013-08-23 12:22:00,101.0,63.0,-100.00,SSW,197,6.0,12.0,29,0.00,,,0.00,989.000000,,2013-08-23 19:22:00,
2013-08-23 12:52:00,102.0,62.0,-100.00,SSW,192,4.0,14.0,27,0.00,,,0.00,1093.000000,,2013-08-23 19:52:00,
2013-08-23 13:02:00,102.0,62.0,-100.00,SSW,192,4.0,14.0,27,0.00,,,0.00,1093.000000,,2013-08-23 20:02:00,
2013-08-23 13:12:00,102.0,62.0,-100.00,SSW,192,4.0,14.0,27,0.00,,,0.00,1093.000000,,2013-08-23 20:12:00,
2013-08-23 13:22:00,102.0,62.0,-100.00,SSW,192,4.0,14.0,27,0.00,,,0.00,1093.000000,,2013-08-23 20:22:00,
2013-08-23 13:52:00,104.0,61.0,-100.00,SSW,203,4.0,15.0,25,0.00,,,0.00,1115.000000,,2013-08-23 20:52:00,
2013-08-23 14:02:00,104.0,61.0,-100.00,SSW,203,4.0,15.0,25,0.00,,,0.00,1115.000000,,2013-08-23 21:02:00,
2013-08-23 14:11:00,104.0,61.0,-100.00,SSW,203,4.0,15.0,25,0.00,,,0.00,1115.000000,,2013-08-23 21:11:00,
2013-08-23 14:21:00,104.0,61.0,-100.00,SSW,203,4.0,15.0,25,0.00,,,0.00,1115.000000,,2013-08-23 21:21:00,
2013-08-23 14:54:00,106.0,62.0,-100.00,SSW,197,6.0,16.0,24,0.00,,,0.00,1057.000000,,2013-08-23 21:54:00,
2013-08-23 15:04:00,106.0,62.0,-100.00,SSW,197,6.0,16.0,24,0.00,,,0.00,1057.000000,,2013-08-23 22:04:00,
2013-08-23 15:13:00,106.0,62.0,-100.00,SSW,197,6.0,16.0,24,0.00,,,0.00,1057.000000,,2013-08-23 22:13:00,
2013-08-23 15:24:00,106.0,62.0,-100.00,SSW,197,6.0,16.0,24,0.00,,,0.00,1057.000000,,2013-08-23 22:24:00,
2013-08-23 15:53:00,105.0,62.0,-100.00,SW,231,5.0,15.0,25,0.00,,,0.00,925.000000,,2013-08-23 22:53:00,
2013-08-23 16:03:00,105.0,62.0,-100.00,SW,231,5.0,15.0,25,0.00,,,0.00,925.000000,,2013-08-23 23:03:00,
2013-08-23 16:12:00,105.0,62.0,-100.00,SW,231,5.0,15.0,25,0.00,,,0.00,925.000000,,2013-08-23 23:12:00,
2013-08-23 16:22:00,105.0,62.0,-100.00,SW,231,5.0,15.0,25,0.00,,,0.00,925.000000,,2013-08-23 23:22:00,
2013-08-23 16:54:00,106.0,65.0,-100.00,WSW,242,5.0,14.0,27,0.00,,,0.00,691.000000,,2013-08-23 23:54:00,
2013-08-23 17:02:00,106.0,65.0,-100.00,WSW,242,5.0,14.0,27,0.00,,,0.00,691.000000,,2013-08-24 00:02:00,
2013-08-23 17:11:00,106.0,65.0,-100.00,WSW,242,5.0,14.0,27,0.00,,,0.00,691.000000,,2013-08-24 00:11:00,
2013-08-23 17:21:00,106.0,65.0,-100.00,WSW,242,5.0,14.0,27,0.00,,,0.00,691.000000,,2013-08-24 00:21:00,
2013-08-23 17:53:00,104.0,63.0,-100.00,SSW,210,4.0,13.0,27,0.00,,,0.00,495.000000,,2013-08-24 00:53:00,
2013-08-23 18:02:00,104.0,63.0,-100.00,SSW,210,4.0,13.0,27,0.00,,,0.00,495.000000,,2013-08-24 01:02:00,
2013-08-23 18:11:00,104.0,63.0,-100.00,SSW,210,4.0,13.0,27,0.00,,,0.00,495.000000,,2013-08-24 01:11:00,
2013-08-23 18:22:00,104.0,63.0,-100.00,SSW,210,4.0,13.0,27,0.00,,,0.00,495.000000,,2013-08-24 01:22:00,
2013-08-23 18:53:00,99.0,66.0,-100.00,SSW,205,10.0,17.0,34,0.00,,,0.00,96.000000,,2013-08-24 01:53:00,
2013-08-23 19:02:00,99.0,66.0,-100.00,SSW,205,10.0,17.0,34,0.00,,,0.00,96.000000,,2013-08-24 02:02:00,
2013-08-23 19:11:00,99.0,66.0,-100.00,SSW,205,10.0,17.0,34,0.00,,,0.00,96.000000,,2013-08-24 02:11:00,
2013-08-23 19:22:00,99.0,66.0,-100.00,SSW,205,10.0,17.0,34,0.00,,,0.00,96.000000,,2013-08-24 02:22:00,
2013-08-23 19:52:00,98.0,63.0,-100.00,SW,218,11.0,18.0,32,0.00,,,0.00,24.000000,,2013-08-24 02:52:00,
2013-08-23 20:02:00,98.0,63.0,-100.00,SW,218,11.0,18.0,32,0.00,,,0.00,24.000000,,2013-08-24 03:02:00,
2013-08-23 20:12:00,98.0,63.0,-100.00,SW,218,11.0,18.0,32,0.00,,,0.00,24.000000,,2013-08-24 03:12:00,
2013-08-23 20:22:00,98.0,63.0,-100.00,SW,218,11.0,18.0,32,0.00,,,0.00,24.000000,,2013-08-24 03:22:00,
2013-08-23 20:55:00,95.0,64.0,-100.00,South,190,4.0,13.0,36,0.00,,,-99.99,0.000000,,2013-08-24 03:55:00,
2013-08-23 21:04:00,95.0,64.0,-100.00,South,190,4.0,13.0,36,0.00,,,-99.99,0.000000,,2013-08-24 04:04:00,
2013-08-23 21:14:00,95.0,64.0,-100.00,South,190,4.0,13.0,36,0.00,,,-99.99,0.000000,,2013-08-24 04:14:00,
2013-08-23 21:24:00,95.0,64.0,-100.00,South,190,4.0,13.0,36,0.00,,,-99.99,0.000000,,2013-08-24 04:24:00,
2013-08-23 21:53:00,97.0,64.0,-100.00,SW,217,3.0,8.0,34,0.00,,,0.00,0.000000,,2013-08-24 04:53:00,
2013-08-23 22:03:00,97.0,64.0,-100.00,SW,217,3.0,8.0,34,0.00,,,0.00,0.000000,,2013-08-24 05:03:00,
2013-08-23 22:13:00,97.0,64.0,-100.00,SW,217,3.0,8.0,34,0.00,,,0.00,0.000000,,2013-08-24 05:13:00,
2013-08-23 22:23:00,97.0,64.0,-100.00,SW,217,3.0,8.0,34,0.00,,,0.00,0.000000,,2013-08-24 05:23:00,
2013-08-23 22:53:00,94.0,63.0,-100.00,SSW,205,9.0,15.0,36,0.00,,,0.00,0.000000,,2013-08-24 05:53:00,
2013-08-23 23:02:00,94.0,63.0,-100.00,SSW,205,9.0,15.0,36,0.00,,,0.00,0.000000,,2013-08-24 06:02:00,
2013-08-23 23:12:00,94.0,63.0,-100.00,SSW,205,9.0,15.0,36,0.00,,,0.00,0.000000,,2013-08-24 06:12:00,
2013-08-23 23:21:00,94.0,63.0,-100.00,SSW,205,9.0,15.0,36,0.00,,,0.00,0.000000,,2013-08-24 06:21:00,
2013-08-23 23:52:00,90.0,68.0,-100.00,SW,224,13.0,20.0,48,0.00,,,0.00,0.000000,,2013-08-24 06:52:00,